Huvudsida
METAR-TAF:

METAR-TAF

Flygplatser :

Billunds flygplats

Billund, Danmark

latitud: 55-44N, longitud: 009-10E, höjd: 75 m

Aktuellt väderrapport

Denna rapport gjordes för 14 minuter sedan, klockan 00:50 UTC
Vind 2 kt från ost/nordost
Temperatur 2°C
Fuktighet 80%
Tryck 1029 hPa
Sikt 10 km eller mer

METAR: EKBI 210050Z AUTO 07002KT 9999 NCD 02/M01 Q1029

Tid: 03:04 (01:04 UTC)

Väderprognos

Denna rapport gjordes för 2 timmar och 3 minuter sedan, klockan 23:01 UTC
Prognos gäller från 21 kl. 00 UTC till 21 kl. 24 UTC
Vind 2 kt varierande vindriktning
Sikt 10 km eller mer
Inga moln under 1 500 m eller inga cumulonimbus

TAF: EKBI 202301Z 2100/2124 VRB02KT CAVOK

Aktuella väderrapporter och prognoser från 4000 flygplatser (METAR- och TAF-rapporter).

De tillgängliga stationerna syns som gula och röda prickar på kartan.

För musen över prickarna för att se namnen på stationerna.

Klicka sedan för att få väderrapporter och prognoser.

För att ändra kartan: Klicka på de gröna knapparna med ett svart kors på för att zooma in; den gröna knappen med ett streck på för att zooma ut; eller på de gröna pilarna för angränsande kartor.


METAR-TAF: